Time;durP1;ratioP1;P1;durP2;ratioP2;P2;SDS_P1;SDS_P2;PMS_P1;PMS_P2;Temp;Humidity;BMP_temperature;BMP_pressure;BME280_temperature;BME280_humidity;BME280_pressure;Samples;Min_cycle;Max_cycle;Signal;HPM_P1;HPM_P2
2022/12/08 00:02:22;;;;;;;41.53;26.43;;;;;;;3.56;100.00;92612.13;5111717;28;20294;-72
2022/12/08 00:10:17;;;;;;;31.00;22.17;;;;;;;3.63;100.00;92625.63;5079542;28;20219;-73
2022/12/08 00:12:42;;;;;;;28.23;22.50;;;;;;;3.70;100.00;92621.09;5111911;28;20172;-73
2022/12/08 00:15:08;;;;;;;32.13;22.73;;;;;;;3.64;100.00;92632.38;5111733;28;20184;-73
2022/12/08 00:17:33;;;;;;;30.77;23.27;;;;;;;3.60;100.00;92636.44;5111515;28;20218;-73
2022/12/08 00:19:58;;;;;;;31.70;22.53;;;;;;;3.65;100.00;92641.66;5110743;28;20195;-73
2022/12/08 00:22:24;;;;;;;36.07;22.00;;;;;;;3.68;100.00;92645.56;5111366;28;20224;-73
2022/12/08 00:24:49;;;;;;;24.80;20.93;;;;;;;3.58;100.00;92628.13;5111658;28;20176;-73
2022/12/08 00:27:16;;;;;;;31.67;21.87;;;;;;;3.57;100.00;92629.16;5111414;28;20232;-73
2022/12/08 00:29:43;;;;;;;25.00;20.53;;;;;;;3.66;100.00;92627.75;5110575;28;20186;-73
2022/12/08 00:32:09;;;;;;;29.20;21.20;;;;;;;3.77;100.00;92644.94;5111250;28;20224;-73
2022/12/08 00:34:34;;;;;;;31.13;20.77;;;;;;;3.78;100.00;92632.81;5110901;28;20199;-73
2022/12/08 00:37:00;;;;;;;35.20;22.70;;;;;;;3.72;100.00;92634.53;5111316;28;20216;-74
2022/12/08 00:39:25;;;;;;;30.37;21.03;;;;;;;3.71;100.00;92648.47;5111526;28;20285;-72
2022/12/08 00:44:35;;;;;;;26.23;19.53;;;;;;;3.61;100.00;92640.56;5110104;28;20230;-72
2022/12/08 00:47:00;;;;;;;22.43;19.33;;;;;;;3.48;100.00;92646.06;5111075;28;20232;-73
2022/12/08 00:49:25;;;;;;;27.37;19.17;;;;;;;3.75;100.00;92644.38;5109274;28;20192;-73
2022/12/08 00:51:51;;;;;;;26.50;20.30;;;;;;;3.58;100.00;92622.19;5110151;28;20296;-71
2022/12/08 00:54:17;;;;;;;24.07;19.27;;;;;;;3.75;100.00;92664.28;5111133;28;20352;-73
2022/12/08 00:56:42;;;;;;;27.30;19.83;;;;;;;3.71;100.00;92656.22;5110829;28;20297;-73
2022/12/08 00:59:07;;;;;;;23.40;18.30;;;;;;;3.96;100.00;92651.41;5111271;28;20186;-73
2022/12/08 01:01:34;;;;;;;23.57;19.30;;;;;;;4.01;100.00;92669.56;5110475;28;20737;-74
2022/12/08 01:04:07;;;;;;;23.47;18.03;;;;;;;3.86;100.00;92650.50;5111088;28;20183;-73
2022/12/08 01:06:36;;;;;;;29.63;18.03;;;;;;;3.94;100.00;92648.28;5110517;28;20279;-73
2022/12/08 01:09:04;;;;;;;24.23;17.70;;;;;;;3.88;100.00;92649.22;5109611;28;20180;-72
2022/12/08 01:11:29;;;;;;;24.17;18.63;;;;;;;3.77;100.00;92623.50;5108221;28;20235;-73
2022/12/08 01:13:55;;;;;;;27.60;19.77;;;;;;;3.80;100.00;92641.88;5107827;28;20183;-72
2022/12/08 01:16:23;;;;;;;23.00;18.47;;;;;;;3.86;100.00;92646.09;5110178;28;20212;-74
2022/12/08 01:18:49;;;;;;;32.53;21.93;;;;;;;3.82;100.00;92641.66;5110650;28;20296;-73
2022/12/08 01:21:15;;;;;;;26.67;18.37;;;;;;;3.89;100.00;92643.03;5110631;28;20227;-72
2022/12/08 01:23:40;;;;;;;25.43;17.90;;;;;;;3.41;100.00;92611.88;5110002;28;20176;-72
2022/12/08 01:26:07;;;;;;;28.47;17.70;;;;;;;3.77;100.00;92652.69;5110305;28;20262;-73
2022/12/08 01:28:33;;;;;;;22.87;18.37;;;;;;;3.81;100.00;92643.47;5110573;28;20294;-73
2022/12/08 01:30:59;;;;;;;24.23;18.90;;;;;;;3.81;100.00;92643.47;5109874;28;20826;-73
2022/12/08 01:33:25;;;;;;;24.90;19.83;;;;;;;3.78;100.00;92627.66;5080811;28;20210;-73
2022/12/08 01:35:51;;;;;;;30.43;20.13;;;;;;;3.86;100.00;92646.09;5109214;28;20228;-73
2022/12/08 01:38:17;;;;;;;23.97;18.37;;;;;;;3.59;100.00;92640.03;5109309;28;20199;-73
2022/12/08 01:40:42;;;;;;;29.23;19.17;;;;;;;3.76;100.00;92635.63;5109978;28;20211;-73
2022/12/08 01:43:14;;;;;;;24.43;18.47;;;;;;;3.68;100.00;92617.97;5110567;28;20199;-71
2022/12/08 01:45:40;;;;;;;22.90;17.60;;;;;;;3.79;100.00;92624.84;5110133;28;20250;-71
2022/12/08 01:48:10;;;;;;;19.67;16.80;;;;;;;3.64;100.00;92616.09;5110114;28;20184;-71
2022/12/08 01:50:39;;;;;;;19.97;17.83;;;;;;;3.77;100.00;92626.06;5109766;28;20369;-71
2022/12/08 01:53:09;;;;;;;17.33;15.67;;;;;;;3.68;100.00;92617.97;5108621;28;20192;-71
2022/12/08 01:55:42;;;;;;;17.57;15.77;;;;;;;3.51;100.00;92613.81;5109546;28;20230;-71
2022/12/08 01:58:15;;;;;;;17.70;15.90;;;;;;;3.44;100.00;92616.56;5102424;28;20191;-71
2022/12/08 02:00:41;;;;;;;17.57;15.80;;;;;;;3.43;100.00;92599.53;5109271;28;20263;-71
2022/12/08 02:03:12;;;;;;;17.17;15.03;;;;;;;3.53;100.00;92604.06;5110027;28;20180;-71
2022/12/08 02:05:39;;;;;;;17.10;15.37;;;;;;;3.55;100.00;92591.72;5109756;28;20224;-71
2022/12/08 02:08:11;;;;;;;16.10;14.50;;;;;;;3.52;100.00;92599.94;5108973;28;20202;-71
2022/12/08 02:10:39;;;;;;;17.17;14.77;;;;;;;3.55;100.00;92591.72;5108598;28;20243;-71
2022/12/08 02:13:08;;;;;;;16.63;15.03;;;;;;;3.51;100.00;92595.75;5110074;28;20206;-71
2022/12/08 02:15:42;;;;;;;16.70;14.87;;;;;;;3.60;100.00;92608.03;5109436;28;20208;-71
2022/12/08 02:18:39;;;;;;;15.80;14.30;;;;;;;3.57;100.00;92616.25;5098748;28;20178;-72
2022/12/08 02:21:35;;;;;;;22.73;18.23;;;;;;;3.51;100.00;92612.03;5109119;28;20239;-72
2022/12/08 02:24:06;;;;;;;20.30;17.20;;;;;;;3.57;100.00;92615.47;5110444;28;20188;-71
2022/12/08 02:26:38;;;;;;;19.53;17.43;;;;;;;3.52;100.00;92616.16;5094591;28;20215;-71
2022/12/08 02:29:15;;;;;;;19.73;15.53;;;;;;;3.72;100.00;92616.47;5095823;28;20209;-71
2022/12/08 02:32:17;;;;;;;23.27;19.23;;;;;;;3.58;100.00;92622.19;5113409;28;20233;-71
2022/12/08 02:35:10;;;;;;;23.57;18.87;;;;;;;3.55;100.00;92622.69;5103454;28;20190;-71
2022/12/08 02:38:00;;;;;;;21.67;18.07;;;;;;;3.54;100.00;92616.72;5112767;28;20228;-71
2022/12/08 02:40:39;;;;;;;23.07;17.80;;;;;;;3.52;100.00;92608.44;5112653;28;20212;-70
2022/12/08 02:43:22;;;;;;;19.60;17.57;;;;;;;3.44;100.00;92590.75;5114135;28;20195;-71
2022/12/08 02:45:52;;;;;;;22.40;16.07;;;;;;;3.60;100.00;92592.56;5100579;28;20223;-71
2022/12/08 02:48:17;;;;;;;18.20;15.97;;;;;;;3.61;100.00;92595.91;5096015;28;20201;-72
2022/12/08 02:50:43;;;;;;;20.27;15.50;;;;;;;3.60;100.00;92595.13;5111847;28;20207;-71
2022/12/08 02:53:08;;;;;;;16.07;14.47;;;;;;;3.75;100.00;92597.16;5112951;28;20192;-70
2022/12/08 02:55:59;;;;;;;16.20;14.63;;;;;;;3.82;100.00;92598.53;5113137;28;20208;-71
2022/12/08 02:58:30;;;;;;;17.37;15.53;;;;;;;3.53;100.00;92594.53;5100722;28;20188;-72
2022/12/08 03:01:10;;;;;;;18.13;14.63;;;;;;;3.50;100.00;92597.59;5113025;28;20223;-72
2022/12/08 03:04:13;;;;;;;15.37;13.90;;;;;;;3.59;100.00;92598.75;5101936;28;20207;-73
2022/12/08 03:06:44;;;;;;;17.53;15.70;;;;;;;3.53;100.00;92596.31;5093879;28;20218;-72
2022/12/08 03:09:21;;;;;;;15.47;13.97;;;;;;;3.54;100.00;92590.91;5091011;28;20255;-73
2022/12/08 03:12:05;;;;;;;17.07;15.30;;;;;;;3.62;100.00;92603.44;5111923;28;20921;-71
2022/12/08 03:14:32;;;;;;;15.23;13.90;;;;;;;3.44;100.00;92595.16;5113464;28;20172;-72
2022/12/08 03:16:59;;;;;;;16.10;14.50;;;;;;;3.34;100.00;92595.78;5099616;28;20226;-72
2022/12/08 03:19:29;;;;;;;14.97;13.57;;;;;;;3.40;100.00;92606.94;5108630;28;20180;-72
2022/12/08 03:22:01;;;;;;;18.40;13.77;;;;;;;3.36;100.00;92595.53;5109536;28;20231;-71
2022/12/08 03:24:31;;;;;;;16.33;14.60;;;;;;;3.46;100.00;92586.16;5112321;28;20259;-72
2022/12/08 03:27:10;;;;;;;14.33;12.97;;;;;;;3.42;100.00;92603.13;5112071;28;20227;-73
2022/12/08 03:29:35;;;;;;;14.97;13.57;;;;;;;3.43;100.00;92601.31;5112939;28;20192;-72
2022/12/08 03:32:15;;;;;;;16.80;15.30;;;;;;;3.40;100.00;92573.41;5101127;28;20234;-72
2022/12/08 03:34:44;;;;;;;15.67;14.27;;;;;;;3.41;100.00;92588.66;5107425;28;20188;-72
2022/12/08 03:37:10;;;;;;;14.60;13.33;;;;;;;3.45;100.00;92600.06;5108000;28;20225;-72
2022/12/08 03:39:35;;;;;;;14.50;13.23;;;;;;;3.37;100.00;92600.47;5111424;28;20195;-72
2022/12/08 03:42:01;;;;;;;14.30;13.10;;;;;;;3.33;100.00;92594.22;5111314;28;20224;-72
2022/12/08 03:44:26;;;;;;;15.07;13.77;;;;;;;3.43;100.00;92591.78;5103293;28;20196;-72
2022/12/08 03:46:51;;;;;;;14.33;12.97;;;;;;;3.61;100.00;92590.75;5102187;28;20270;-72
2022/12/08 03:49:17;;;;;;;14.63;13.43;;;;;;;3.49;100.00;92572.00;5103573;28;20223;-72
2022/12/08 03:51:42;;;;;;;14.77;13.47;;;;;;;3.72;100.00;92602.78;5111921;28;20306;-68
2022/12/08 03:54:07;;;;;;;15.03;13.57;;;;;;;3.80;100.00;92600.56;5111643;28;20176;-70
2022/12/08 03:56:36;;;;;;;14.40;13.10;;;;;;;3.80;100.00;92589.50;5101605;28;20227;-70
2022/12/08 03:59:02;;;;;;;15.33;13.80;;;;;;;3.80;100.00;92595.41;5108641;28;20184;-69
2022/12/08 04:01:28;;;;;;;15.20;13.70;;;;;;;3.70;100.00;92584.97;5111844;28;20227;-69
2022/12/08 04:03:53;;;;;;;16.17;14.60;;;;;;;3.62;100.00;92607.81;5112384;28;20184;-68
2022/12/08 04:06:20;;;;;;;27.67;18.90;;;;;;;3.76;100.00;92604.66;5111651;28;20222;-69
2022/12/08 04:08:45;;;;;;;21.27;17.97;;;;;;;3.93;100.00;92620.13;5108683;28;20181;-69
2022/12/08 04:11:11;;;;;;;19.27;16.13;;;;;;;3.90;100.00;92610.25;5105120;28;20232;-70
2022/12/08 04:13:37;;;;;;;17.77;15.93;;;;;;;3.92;100.00;92615.97;5103019;28;20196;-69
2022/12/08 04:16:04;;;;;;;18.30;16.23;;;;;;;3.94;100.00;92617.28;5112053;28;20243;-69
2022/12/08 04:18:30;;;;;;;20.33;16.43;;;;;;;3.76;100.00;92625.31;5112170;28;20180;-67
2022/12/08 04:20:55;;;;;;;26.67;19.77;;;;;;;3.65;100.00;92623.59;5111612;28;20319;-68
2022/12/08 04:23:21;;;;;;;30.13;20.50;;;;;;;3.95;100.00;92618.88;5110833;28;20275;-70
2022/12/08 04:25:46;;;;;;;24.70;18.60;;;;;;;4.01;100.00;92611.97;5111245;28;20226;-70
2022/12/08 04:28:12;;;;;;;31.67;20.43;;;;;;;4.03;100.00;92621.03;5093976;28;20242;-69
2022/12/08 04:30:37;;;;;;;24.87;19.90;;;;;;;3.87;100.00;92611.53;5102319;28;20217;-69
2022/12/08 04:33:03;;;;;;;28.03;19.73;;;;;;;4.00;100.00;92611.19;5102097;28;20185;-69
2022/12/08 04:35:28;;;;;;;22.63;19.13;;;;;;;4.06;100.00;92607.63;5111223;28;20183;-68
2022/12/08 04:37:53;;;;;;;24.53;19.20;;;;;;;3.98;100.00;92617.59;5111184;28;20181;-67
2022/12/08 04:40:19;;;;;;;24.23;20.27;;;;;;;3.89;100.00;92608.72;5110488;28;20202;-69
2022/12/08 04:42:44;;;;;;;28.07;19.40;;;;;;;3.86;100.00;92614.34;5111599;28;20188;-71
2022/12/08 04:45:10;;;;;;;31.10;20.93;;;;;;;3.85;100.00;92612.78;5109476;28;20185;-71
2022/12/08 04:47:35;;;;;;;29.47;20.70;;;;;;;3.91;100.00;92619.56;5111392;28;20252;-71
2022/12/08 04:50:01;;;;;;;24.77;19.93;;;;;;;3.90;100.00;92602.53;5110211;28;20204;-73
2022/12/08 04:52:27;;;;;;;27.10;20.97;;;;;;;3.79;100.00;92599.03;5110957;28;20232;-73
2022/12/08 04:54:52;;;;;;;30.10;20.73;;;;;;;3.93;100.00;92596.88;5102803;28;20184;-72
2022/12/08 04:57:17;;;;;;;22.83;17.23;;;;;;;4.08;100.00;92621.09;5110791;28;20231;-72
2022/12/08 04:59:43;;;;;;;23.13;19.87;;;;;;;3.78;100.00;92601.84;5110426;28;20187;-73
2022/12/08 05:02:08;;;;;;;22.90;18.70;;;;;;;4.16;100.00;92617.31;5110138;28;20235;-71
2022/12/08 05:04:33;;;;;;;26.57;21.87;;;;;;;4.01;100.00;92612.75;5110394;28;20251;-70
2022/12/08 05:06:59;;;;;;;30.23;21.87;;;;;;;3.85;100.00;92620.50;5109976;28;20232;-70
2022/12/08 05:09:24;;;;;;;27.87;21.40;;;;;;;4.15;100.00;92626.09;5109895;28;20300;-69
2022/12/08 05:11:50;;;;;;;30.43;22.27;;;;;;;4.13;100.00;92634.09;5109896;28;20231;-69
2022/12/08 05:14:17;;;;;;;28.37;22.40;;;;;;;4.16;100.00;92636.19;5107412;28;20200;-70
2022/12/08 05:16:43;;;;;;;28.13;22.60;;;;;;;3.99;100.00;92635.44;5103625;28;20245;-68
2022/12/08 05:19:08;;;;;;;30.40;22.70;;;;;;;4.17;100.00;92640.31;5110593;28;20236;-70
2022/12/08 05:21:34;;;;;;;29.27;21.53;;;;;;;4.25;100.00;92634.00;5110462;28;20227;-70
2022/12/08 05:23:59;;;;;;;33.40;22.17;;;;;;;4.09;100.00;92643.34;5109808;28;20255;-69
2022/12/08 05:26:25;;;;;;;29.53;22.40;;;;;;;3.86;100.00;92594.47;5110390;28;20250;-70
2022/12/08 05:28:50;;;;;;;28.63;20.20;;;;;;;4.31;100.00;92645.94;5090603;28;20216;-73
2022/12/08 05:31:17;;;;;;;26.20;20.93;;;;;;;4.53;100.00;92644.91;5109872;28;20227;-72
2022/12/08 05:33:43;;;;;;;31.40;21.47;;;;;;;4.51;100.00;92644.38;5110066;28;20933;-72
2022/12/08 05:36:11;;;;;;;26.83;21.73;;;;;;;4.39;100.00;92651.47;5109733;28;20215;-72
2022/12/08 05:38:36;;;;;;;26.60;20.90;;;;;;;4.36;100.00;92654.53;5109950;28;20208;-72
2022/12/08 05:41:02;;;;;;;30.37;20.80;;;;;;;4.36;100.00;92664.88;5101271;28;20246;-73
2022/12/08 05:43:28;;;;;;;26.63;19.47;;;;;;;4.26;100.00;92651.03;5105819;28;20188;-72
2022/12/08 05:45:53;;;;;;;29.47;22.53;;;;;;;4.17;100.00;92649.91;5110156;28;20241;-72
2022/12/08 05:48:19;;;;;;;33.17;23.63;;;;;;;4.26;100.00;92654.41;5092694;28;20180;-72
2022/12/08 05:50:46;;;;;;;32.07;21.40;;;;;;;4.29;100.00;92660.91;5109346;28;20212;-72
2022/12/08 05:53:11;;;;;;;29.57;21.73;;;;;;;4.73;100.00;92647.72;5109042;28;20180;-72
2022/12/08 05:55:36;;;;;;;35.57;23.60;;;;;;;4.01;100.00;92661.03;5108457;28;20230;-72
2022/12/08 05:58:02;;;;;;;38.17;26.17;;;;;;;4.10;100.00;92668.16;5109261;28;20237;-72
2022/12/08 06:00:27;;;;;;;52.27;29.10;;;;;;;3.96;100.00;92656.59;5109058;28;20693;-72
2022/12/08 06:02:53;;;;;;;51.30;26.90;;;;;;;3.89;100.00;92655.19;5109334;28;20192;-72
2022/12/08 06:05:18;;;;;;;33.73;25.00;;;;;;;3.87;100.00;92663.19;5108902;28;20841;-72
2022/12/08 06:07:44;;;;;;;40.40;25.93;;;;;;;3.95;100.00;92647.28;5109952;28;20245;-72
2022/12/08 06:10:09;;;;;;;32.90;23.97;;;;;;;3.94;100.00;92666.34;5109563;28;20226;-72
2022/12/08 06:12:35;;;;;;;35.90;22.73;;;;;;;4.01;100.00;92658.44;5109252;28;20231;-72
2022/12/08 06:15:00;;;;;;;40.00;25.87;;;;;;;4.12;100.00;92662.75;5110317;28;20991;-71
2022/12/08 06:17:25;;;;;;;30.93;23.03;;;;;;;4.06;100.00;92666.28;5109832;28;20222;-72
2022/12/08 06:19:51;;;;;;;27.67;20.90;;;;;;;4.15;100.00;92668.22;5109431;28;20188;-73
2022/12/08 06:22:16;;;;;;;31.10;21.53;;;;;;;4.08;100.00;92662.44;5108676;28;20224;-71
2022/12/08 06:24:41;;;;;;;39.73;25.90;;;;;;;4.26;100.00;92677.66;5106334;28;20251;-71
2022/12/08 06:27:07;;;;;;;33.50;22.43;;;;;;;4.33;100.00;92680.84;5108301;28;20236;-71
2022/12/08 06:29:32;;;;;;;52.60;26.87;;;;;;;4.31;100.00;92684.72;5108624;28;20257;-69
2022/12/08 06:31:57;;;;;;;40.30;25.03;;;;;;;4.42;100.00;92676.84;5108374;28;20267;-69
2022/12/08 06:34:23;;;;;;;45.87;26.23;;;;;;;4.55;100.00;92681.66;5108761;28;20184;-70
2022/12/08 06:36:48;;;;;;;46.27;27.27;;;;;;;4.55;100.00;92694.59;5107453;28;20279;-71
2022/12/08 06:39:13;;;;;;;59.13;30.70;;;;;;;4.35;100.00;92678.03;5107280;28;20192;-70
2022/12/08 06:42:42;;;;;;;40.97;26.13;;;;;;;4.74;100.00;92693.28;5107825;28;20308;-71
2022/12/08 06:44:24;;;;;;;39.40;23.67;;;;;;;4.49;100.00;92685.22;5108910;28;20184;-71
2022/12/08 06:46:50;;;;;;;43.40;25.90;;;;;;;4.48;100.00;92681.03;5108592;28;20228;-72
2022/12/08 06:49:15;;;;;;;42.07;26.93;;;;;;;4.47;100.00;92655.44;5108649;28;20239;-71
2022/12/08 06:51:40;;;;;;;34.77;24.87;;;;;;;4.52;100.00;92653.72;5108421;28;20219;-70
2022/12/08 06:54:06;;;;;;;29.47;22.67;;;;;;;4.71;100.00;92662.72;5090674;28;20740;-70
2022/12/08 06:56:31;;;;;;;27.43;22.57;;;;;;;4.90;100.00;92663.94;5107639;28;20232;-73
2022/12/08 06:58:56;;;;;;;29.50;22.30;;;;;;;4.83;100.00;92653.03;5108090;28;20215;-71
2022/12/08 07:01:22;;;;;;;29.07;26.00;;;;;;;5.03;100.00;92667.22;5100850;28;20216;-69
2022/12/08 07:03:47;;;;;;;24.30;21.17;;;;;;;5.24;100.00;92668.97;5099462;28;20188;-71
2022/12/08 07:06:20;;;;;;;36.90;25.57;;;;;;;5.23;100.00;92665.59;5107213;28;20220;-70
2022/12/08 07:08:45;;;;;;;37.30;26.13;;;;;;;5.03;100.00;92664.63;5091071;28;20243;-71
2022/12/08 07:11:11;;;;;;;46.37;27.23;;;;;;;5.16;100.00;92669.41;5108111;28;21028;-71
2022/12/08 07:13:37;;;;;;;41.53;27.13;;;;;;;5.55;100.00;92692.31;5110854;28;20215;-71
2022/12/08 07:16:07;;;;;;;51.23;29.37;;;;;;;5.09;100.00;92702.47;5110777;28;20279;-70
2022/12/08 07:18:34;;;;;;;52.43;29.23;;;;;;;4.88;100.00;92701.44;5111953;28;20976;-70
2022/12/08 07:21:10;;;;;;;41.90;28.53;;;;;;;4.93;100.00;92676.41;5110944;28;20309;-71
2022/12/08 07:23:36;;;;;;;35.87;27.70;;;;;;;5.26;100.00;92703.16;5111118;28;20191;-70
2022/12/08 07:26:03;;;;;;;50.50;28.50;;;;;;;5.07;100.00;92720.00;5094580;28;20223;-70
2022/12/08 07:28:33;;;;;;;43.27;30.03;;;;;;;5.24;100.00;92712.94;5110938;28;20224;-68
2022/12/08 07:30:59;;;;;;;44.00;27.53;;;;;;;5.03;100.00;92706.78;5111398;28;20279;-69
2022/12/08 07:33:25;;;;;;;43.60;27.27;;;;;;;5.00;100.00;92716.84;5108559;28;20195;-70
2022/12/08 07:35:58;;;;;;;40.83;27.33;;;;;;;5.22;100.00;92725.34;5103745;28;20239;-69
2022/12/08 07:38:24;;;;;;;44.93;29.97;;;;;;;5.52;100.00;92720.47;5110195;28;20179;-69
2022/12/08 07:40:50;;;;;;;45.77;31.10;;;;;;;5.46;100.00;92731.81;5109386;28;20231;-69
2022/12/08 07:43:16;;;;;;;41.30;29.57;;;;;;;5.22;100.00;92720.97;5109017;28;20195;-70
2022/12/08 07:45:41;;;;;;;48.57;30.60;;;;;;;5.13;100.00;92722.41;5109952;28;20224;-70
2022/12/08 07:48:07;;;;;;;49.17;30.40;;;;;;;4.66;100.00;92709.19;5111314;28;20181;-71
2022/12/08 07:50:32;;;;;;;48.93;32.30;;;;;;;4.93;100.00;92710.03;5100919;28;20207;-71
2022/12/08 07:52:58;;;;;;;49.07;30.33;;;;;;;5.31;100.00;92721.31;5109781;28;20176;-69
2022/12/08 07:55:23;;;;;;;57.47;33.07;;;;;;;5.24;100.00;92715.53;5110262;28;20164;-71
2022/12/08 07:57:49;;;;;;;54.90;35.77;;;;;;;5.36;100.00;92723.94;5109199;28;20184;-70
2022/12/08 08:00:15;;;;;;;52.63;33.30;;;;;;;5.33;100.00;92716.66;5110049;28;20198;-70
2022/12/08 08:02:41;;;;;;;52.27;33.33;;;;;;;5.44;100.00;92720.91;5110977;28;20211;-70
2022/12/08 08:05:07;;;;;;;50.23;34.07;;;;;;;5.15;100.00;92717.00;5102419;28;20283;-70
2022/12/08 08:07:33;;;;;;;56.77;34.20;;;;;;;5.31;100.00;92722.09;5110751;28;20207;-70
2022/12/08 08:09:59;;;;;;;53.03;32.33;;;;;;;5.37;100.00;92717.75;5092828;28;20188;-70
2022/12/08 08:12:24;;;;;;;61.73;36.37;;;;;;;5.53;100.00;92722.03;5108647;28;20815;-68
2022/12/08 08:14:49;;;;;;;62.93;37.97;;;;;;;5.73;100.00;92710.06;5086745;28;20298;-69
2022/12/08 08:17:15;;;;;;;61.53;38.63;;;;;;;5.64;100.00;92731.47;5092422;28;20224;-70
2022/12/08 08:19:40;;;;;;;60.07;39.53;;;;;;;5.71;100.00;92727.63;5109479;28;20199;-71
2022/12/08 08:22:05;;;;;;;68.17;41.10;;;;;;;5.86;100.00;92720.06;5109998;28;20224;-71
2022/12/08 08:24:31;;;;;;;60.23;39.63;;;;;;;5.92;100.00;92713.09;5109733;28;20195;-71
2022/12/08 08:26:56;;;;;;;61.40;38.00;;;;;;;6.22;100.00;92721.09;5109544;28;20251;-69
2022/12/08 08:29:22;;;;;;;59.40;38.83;;;;;;;6.28;100.00;92720.09;5109435;28;20187;-69
2022/12/08 08:31:47;;;;;;;61.50;40.13;;;;;;;6.51;100.00;92730.88;5107018;28;20223;-69
2022/12/08 08:34:12;;;;;;;65.97;38.43;;;;;;;6.56;100.00;92709.38;5110731;28;20188;-68
2022/12/08 08:36:38;;;;;;;59.77;35.33;;;;;;;6.73;100.00;92720.34;5107874;28;20223;-70
2022/12/08 08:39:04;;;;;;;58.57;34.07;;;;;;;6.74;100.00;92727.09;5109515;28;20248;-68
2022/12/08 08:41:30;;;;;;;54.97;36.27;;;;;;;6.60;100.00;92725.22;5109402;28;20251;-68
2022/12/08 08:43:55;;;;;;;62.77;37.00;;;;;;;6.52;100.00;92736.84;5090447;28;20214;-68
2022/12/08 08:46:20;;;;;;;59.10;36.30;;;;;;;6.56;100.00;92724.94;5110131;28;20216;-68
2022/12/08 08:48:46;;;;;;;53.93;35.53;;;;;;;6.38;100.00;92717.59;5106733;28;20180;-69
2022/12/08 08:51:13;;;;;;;58.70;35.40;;;;;;;6.42;100.00;92739.38;5109406;28;20220;-69
2022/12/08 08:53:39;;;;;;;65.27;36.73;;;;;;;6.43;100.00;92727.97;5104488;28;20195;-69
2022/12/08 08:56:16;;;;;;;53.80;34.53;;;;;;;6.52;100.00;92718.69;5104168;28;20223;-76
2022/12/08 08:58:42;;;;;;;59.93;35.73;;;;;;;6.42;100.00;92721.22;5108273;28;20184;-72
2022/12/08 09:01:07;;;;;;;61.80;37.57;;;;;;;5.90;100.00;92715.16;5109296;28;20224;-72
2022/12/08 09:03:33;;;;;;;58.80;35.77;;;;;;;6.10;100.00;92715.31;5092245;28;20271;-73
2022/12/08 09:05:58;;;;;;;56.73;35.47;;;;;;;6.23;100.00;92707.88;5109291;28;20220;-72
2022/12/08 09:08:24;;;;;;;60.27;39.80;;;;;;;6.44;100.00;92695.84;5092116;28;20187;-73
2022/12/08 09:10:49;;;;;;;72.53;39.00;;;;;;;6.79;100.00;92710.78;5109320;28;20228;-73
2022/12/08 09:13:15;;;;;;;57.80;37.57;;;;;;;6.37;100.00;92677.91;5110066;28;21188;-73
2022/12/08 09:15:40;;;;;;;58.37;37.50;;;;;;;6.93;100.00;92698.91;5109465;28;20269;-72
2022/12/08 09:18:07;;;;;;;60.87;38.87;;;;;;;7.06;100.00;92690.66;5110265;28;20184;-73
2022/12/08 09:20:34;;;;;;;58.87;38.90;;;;;;;7.36;100.00;92701.91;5107988;28;20182;-72
2022/12/08 09:22:59;;;;;;;62.83;39.27;;;;;;;7.32;100.00;92700.84;5103212;28;20232;-73
2022/12/08 09:25:24;;;;;;;61.17;33.97;;;;;;;7.36;100.00;92678.53;5107784;28;20191;-73
2022/12/08 09:27:50;;;;;;;64.07;36.63;;;;;;;7.42;100.00;92695.69;5109040;28;20283;-72
2022/12/08 09:30:15;;;;;;;56.53;33.47;;;;;;;7.02;100.00;92687.03;5109273;28;20208;-74
2022/12/08 09:32:41;;;;;;;54.73;33.07;;;;;;;6.80;100.00;92686.41;5109698;28;20184;-73
2022/12/08 09:35:07;;;;;;;48.27;33.23;;;;;;;6.85;100.00;92707.97;5109764;28;20218;-72
2022/12/08 09:37:32;;;;;;;55.73;34.17;;;;;;;6.83;100.00;92699.66;5109900;28;20224;-71
2022/12/08 09:39:58;;;;;;;56.37;34.57;;;;;;;6.76;100.00;92685.34;5110456;28;20187;-72
2022/12/08 09:42:54;;;;;;;58.97;33.93;;;;;;;6.89;100.00;92688.28;5109658;28;20224;-73
2022/12/08 09:45:33;;;;;;;52.50;35.07;;;;;;;6.45;100.00;92685.22;5109266;28;20184;-73
2022/12/08 09:48:11;;;;;;;55.43;34.10;;;;;;;6.83;100.00;92693.69;5103411;28;20172;-73
2022/12/08 09:50:44;;;;;;;52.30;34.17;;;;;;;7.05;100.00;92696.88;5098892;28;20240;-72
2022/12/08 09:53:22;;;;;;;49.27;32.10;;;;;;;7.34;100.00;92693.59;5105363;28;20184;-72
2022/12/08 09:56:12;;;;;;;52.03;32.43;;;;;;;7.43;100.00;92684.28;5109488;28;20239;-72
2022/12/08 09:58:52;;;;;;;50.33;32.03;;;;;;;7.36;100.00;92688.91;5096962;28;20196;-73
2022/12/08 10:01:22;;;;;;;56.43;32.57;;;;;;;7.97;99.55;92687.94;5109812;28;20238;-73
2022/12/08 10:03:48;;;;;;;50.17;30.70;;;;;;;8.05;98.50;92682.22;5109756;28;20176;-73
2022/12/08 10:06:29;;;;;;;41.43;28.60;;;;;;;7.97;98.22;92674.16;5108351;28;20238;-72
2022/12/08 10:09:16;;;;;;;40.70;25.40;;;;;;;8.08;96.80;92676.50;5092219;28;20172;-73
2022/12/08 10:11:56;;;;;;;36.33;26.07;;;;;;;8.35;95.12;92668.44;5105044;28;20230;-73
2022/12/08 10:14:44;;;;;;;40.87;32.77;;;;;;;7.99;96.70;92662.47;5108884;28;20187;-73
2022/12/08 10:17:24;;;;;;;44.63;27.07;;;;;;;8.30;94.52;92645.03;5108645;28;20228;-68
2022/12/08 10:19:57;;;;;;;34.43;27.33;;;;;;;8.48;93.52;92654.13;5089011;28;20175;-68
2022/12/08 10:22:26;;;;;;;40.37;27.57;;;;;;;8.19;93.75;92657.25;5106833;28;20224;-69
2022/12/08 10:24:59;;;;;;;40.53;29.57;;;;;;;8.07;96.36;92656.75;5109473;28;20205;-69
2022/12/08 10:27:25;;;;;;;45.70;29.83;;;;;;;7.94;97.42;92652.06;5090471;28;20275;-69
2022/12/08 10:29:51;;;;;;;46.37;30.53;;;;;;;8.12;98.12;92651.53;5100117;28;20210;-68
2022/12/08 10:32:23;;;;;;;42.77;28.57;;;;;;;8.51;96.81;92653.59;5090936;28;20216;-69
2022/12/08 10:35:02;;;;;;;42.47;29.40;;;;;;;8.79;95.64;92655.56;5106514;28;20200;-69
2022/12/08 10:37:28;;;;;;;48.80;26.53;;;;;;;9.12;94.41;92657.53;5108264;28;20247;-68
2022/12/08 10:40:05;;;;;;;24.73;20.47;;;;;;;9.22;92.06;92652.25;5108989;28;20230;-68
2022/12/08 10:42:38;;;;;;;22.57;19.13;;;;;;;9.39;87.90;92650.06;5102284;28;20234;-70
2022/12/08 10:45:36;;;;;;;18.00;16.37;;;;;;;9.46;87.04;92651.31;5112231;28;20188;-68
2022/12/08 10:48:14;;;;;;;18.00;16.13;;;;;;;9.51;85.84;92643.47;5110959;28;20204;-69
2022/12/08 10:50:45;;;;;;;19.37;17.50;;;;;;;9.72;85.82;92638.91;5110748;28;20223;-69
2022/12/08 10:53:14;;;;;;;37.13;23.80;;;;;;;9.77;86.50;92625.84;5106455;28;20197;-69
2022/12/08 10:55:45;;;;;;;41.30;27.93;;;;;;;9.17;89.85;92636.66;5091497;28;20275;-68
2022/12/08 10:58:36;;;;;;;18.87;16.97;;;;;;;9.55;85.36;92635.91;5112031;28;20212;-69
2022/12/08 11:01:13;;;;;;;36.73;26.27;;;;;;;9.56;87.54;92637.44;5097041;28;20231;-68
2022/12/08 11:03:46;;;;;;;38.87;27.73;;;;;;;9.09;89.61;92630.19;5109246;28;20184;-68
2022/12/08 11:06:29;;;;;;;37.13;28.30;;;;;;;9.14;90.97;92635.38;5109998;28;20254;-66
2022/12/08 11:09:02;;;;;;;39.30;26.27;;;;;;;9.15;90.19;92623.13;5111777;28;20204;-67
2022/12/08 11:11:49;;;;;;;18.37;16.47;;;;;;;9.60;85.77;92625.44;5093624;28;20228;-66
2022/12/08 11:14:25;;;;;;;19.97;17.87;;;;;;;9.84;85.97;92612.50;5111019;28;20304;-66
2022/12/08 11:16:53;;;;;;;28.70;22.50;;;;;;;9.68;86.98;92611.84;5108582;28;20274;-67
2022/12/08 11:19:20;;;;;;;14.23;12.93;;;;;;;9.29;86.78;92604.00;5107908;28;20177;-69
2022/12/08 11:21:46;;;;;;;14.97;13.67;;;;;;;9.78;85.18;92601.31;5109598;28;20228;-69
2022/12/08 11:24:20;;;;;;;19.27;15.90;;;;;;;10.05;83.30;92599.00;5111239;28;20212;-70
2022/12/08 11:26:53;;;;;;;19.40;17.47;;;;;;;9.92;82.79;92594.44;5102750;28;20216;-69
2022/12/08 11:29:19;;;;;;;21.77;16.73;;;;;;;10.19;81.78;92588.72;5111498;28;20188;-69
2022/12/08 11:32:01;;;;;;;19.07;17.03;;;;;;;10.17;81.81;92583.00;5110195;28;20224;-67
2022/12/08 11:34:47;;;;;;;21.13;18.87;;;;;;;10.35;82.22;92600.56;5099281;28;20196;-69
2022/12/08 11:37:24;;;;;;;30.30;21.53;;;;;;;10.13;83.65;92593.22;5100550;28;20239;-69